sensor_id;sensor_type;location;lat;lon;timestamp;P1;durP1;ratioP1;P2;durP2;ratioP2
10920;SDS011;5513;50.580;8.818;2022-12-20T00:02:01;51.97;;;27.67;;
10920;SDS011;5513;50.580;8.818;2022-12-20T00:04:30;48.40;;;28.87;;
10920;SDS011;5513;50.580;8.818;2022-12-20T00:06:58;47.23;;;27.43;;
10920;SDS011;5513;50.580;8.818;2022-12-20T00:09:28;48.50;;;27.07;;
10920;SDS011;5513;50.580;8.818;2022-12-20T00:11:57;50.37;;;28.37;;
10920;SDS011;5513;50.580;8.818;2022-12-20T00:14:27;48.00;;;28.00;;
10920;SDS011;5513;50.580;8.818;2022-12-20T00:16:56;46.20;;;28.00;;
10920;SDS011;5513;50.580;8.818;2022-12-20T00:19:26;52.63;;;30.27;;
10920;SDS011;5513;50.580;8.818;2022-12-20T00:21:55;45.40;;;27.23;;
10920;SDS011;5513;50.580;8.818;2022-12-20T00:24:25;45.20;;;26.60;;
10920;SDS011;5513;50.580;8.818;2022-12-20T00:26:53;46.30;;;26.93;;
10920;SDS011;5513;50.580;8.818;2022-12-20T00:29:22;48.20;;;27.83;;
10920;SDS011;5513;50.580;8.818;2022-12-20T00:31:51;44.90;;;26.73;;
10920;SDS011;5513;50.580;8.818;2022-12-20T00:34:19;51.73;;;28.50;;
10920;SDS011;5513;50.580;8.818;2022-12-20T00:36:50;49.00;;;27.03;;
10920;SDS011;5513;50.580;8.818;2022-12-20T00:39:19;48.60;;;27.00;;
10920;SDS011;5513;50.580;8.818;2022-12-20T00:41:49;49.70;;;27.07;;
10920;SDS011;5513;50.580;8.818;2022-12-20T00:44:19;43.60;;;25.80;;
10920;SDS011;5513;50.580;8.818;2022-12-20T00:46:48;46.80;;;27.47;;
10920;SDS011;5513;50.580;8.818;2022-12-20T00:49:16;49.17;;;26.60;;
10920;SDS011;5513;50.580;8.818;2022-12-20T00:51:45;47.53;;;26.20;;
10920;SDS011;5513;50.580;8.818;2022-12-20T00:54:15;45.03;;;26.03;;
10920;SDS011;5513;50.580;8.818;2022-12-20T00:56:44;46.17;;;26.43;;
10920;SDS011;5513;50.580;8.818;2022-12-20T00:59:12;47.80;;;26.47;;
10920;SDS011;5513;50.580;8.818;2022-12-20T01:01:41;44.93;;;25.63;;
10920;SDS011;5513;50.580;8.818;2022-12-20T01:04:09;47.50;;;27.13;;
10920;SDS011;5513;50.580;8.818;2022-12-20T01:06:38;47.40;;;25.83;;
10920;SDS011;5513;50.580;8.818;2022-12-20T01:09:07;45.07;;;26.30;;
10920;SDS011;5513;50.580;8.818;2022-12-20T01:11:37;45.20;;;26.37;;
10920;SDS011;5513;50.580;8.818;2022-12-20T01:14:07;43.67;;;25.80;;
10920;SDS011;5513;50.580;8.818;2022-12-20T01:16:39;44.83;;;25.97;;
10920;SDS011;5513;50.580;8.818;2022-12-20T01:19:11;45.87;;;25.97;;
10920;SDS011;5513;50.580;8.818;2022-12-20T01:21:42;42.53;;;26.07;;
10920;SDS011;5513;50.580;8.818;2022-12-20T01:24:10;46.10;;;25.53;;
10920;SDS011;5513;50.580;8.818;2022-12-20T01:26:41;47.27;;;26.70;;
10920;SDS011;5513;50.580;8.818;2022-12-20T01:29:10;44.83;;;26.13;;
10920;SDS011;5513;50.580;8.818;2022-12-20T01:31:39;47.07;;;26.80;;
10920;SDS011;5513;50.580;8.818;2022-12-20T01:34:08;44.50;;;26.23;;
10920;SDS011;5513;50.580;8.818;2022-12-20T01:36:37;46.67;;;26.23;;
10920;SDS011;5513;50.580;8.818;2022-12-20T01:39:06;45.33;;;25.93;;
10920;SDS011;5513;50.580;8.818;2022-12-20T01:41:38;44.80;;;26.07;;
10920;SDS011;5513;50.580;8.818;2022-12-20T01:47:12;47.63;;;25.17;;
10920;SDS011;5513;50.580;8.818;2022-12-20T01:49:43;48.70;;;25.97;;
10920;SDS011;5513;50.580;8.818;2022-12-20T01:52:18;45.10;;;27.17;;
10920;SDS011;5513;50.580;8.818;2022-12-20T01:54:50;44.83;;;26.07;;
10920;SDS011;5513;50.580;8.818;2022-12-20T01:57:26;47.37;;;27.70;;
10920;SDS011;5513;50.580;8.818;2022-12-20T02:00:03;46.57;;;26.73;;
10920;SDS011;5513;50.580;8.818;2022-12-20T02:02:34;46.63;;;26.30;;
10920;SDS011;5513;50.580;8.818;2022-12-20T02:05:04;44.50;;;26.47;;
10920;SDS011;5513;50.580;8.818;2022-12-20T02:07:33;46.20;;;26.87;;
10920;SDS011;5513;50.580;8.818;2022-12-20T02:10:04;45.97;;;26.00;;
10920;SDS011;5513;50.580;8.818;2022-12-20T02:12:38;46.97;;;26.17;;
10920;SDS011;5513;50.580;8.818;2022-12-20T02:15:28;47.77;;;27.13;;
10920;SDS011;5513;50.580;8.818;2022-12-20T02:18:07;46.03;;;27.80;;
10920;SDS011;5513;50.580;8.818;2022-12-20T02:20:46;46.27;;;26.57;;
10920;SDS011;5513;50.580;8.818;2022-12-20T02:23:41;46.57;;;26.37;;
10920;SDS011;5513;50.580;8.818;2022-12-20T02:26:38;49.73;;;28.30;;
10920;SDS011;5513;50.580;8.818;2022-12-20T02:29:23;44.93;;;25.77;;
10920;SDS011;5513;50.580;8.818;2022-12-20T02:32:00;45.30;;;25.87;;
10920;SDS011;5513;50.580;8.818;2022-12-20T02:34:32;42.30;;;25.47;;
10920;SDS011;5513;50.580;8.818;2022-12-20T02:37:03;47.07;;;25.77;;
10920;SDS011;5513;50.580;8.818;2022-12-20T02:39:32;45.90;;;26.00;;
10920;SDS011;5513;50.580;8.818;2022-12-20T02:42:02;42.23;;;24.77;;
10920;SDS011;5513;50.580;8.818;2022-12-20T02:44:34;45.77;;;25.83;;
10920;SDS011;5513;50.580;8.818;2022-12-20T02:47:25;43.87;;;26.03;;
10920;SDS011;5513;50.580;8.818;2022-12-20T02:49:57;47.00;;;26.80;;
10920;SDS011;5513;50.580;8.818;2022-12-20T02:52:27;43.03;;;26.43;;
10920;SDS011;5513;50.580;8.818;2022-12-20T02:54:58;44.37;;;25.70;;
10920;SDS011;5513;50.580;8.818;2022-12-20T02:57:31;44.37;;;25.90;;
10920;SDS011;5513;50.580;8.818;2022-12-20T03:00:06;43.83;;;25.43;;
10920;SDS011;5513;50.580;8.818;2022-12-20T03:02:39;50.53;;;27.00;;
10920;SDS011;5513;50.580;8.818;2022-12-20T03:05:28;46.17;;;26.23;;
10920;SDS011;5513;50.580;8.818;2022-12-20T03:07:58;43.10;;;25.83;;
10920;SDS011;5513;50.580;8.818;2022-12-20T03:10:27;42.90;;;24.83;;
10920;SDS011;5513;50.580;8.818;2022-12-20T03:12:56;45.23;;;26.07;;
10920;SDS011;5513;50.580;8.818;2022-12-20T03:15:25;46.07;;;27.17;;
10920;SDS011;5513;50.580;8.818;2022-12-20T03:17:55;45.60;;;25.03;;
10920;SDS011;5513;50.580;8.818;2022-12-20T03:20:23;42.90;;;26.10;;
10920;SDS011;5513;50.580;8.818;2022-12-20T03:22:52;42.90;;;24.13;;
10920;SDS011;5513;50.580;8.818;2022-12-20T03:25:23;42.87;;;25.40;;
10920;SDS011;5513;50.580;8.818;2022-12-20T03:27:51;44.90;;;25.40;;
10920;SDS011;5513;50.580;8.818;2022-12-20T03:30:22;41.20;;;24.70;;
10920;SDS011;5513;50.580;8.818;2022-12-20T03:32:50;46.43;;;26.00;;
10920;SDS011;5513;50.580;8.818;2022-12-20T03:35:21;42.10;;;25.50;;
10920;SDS011;5513;50.580;8.818;2022-12-20T03:37:49;44.23;;;25.60;;
10920;SDS011;5513;50.580;8.818;2022-12-20T03:40:18;47.80;;;25.77;;
10920;SDS011;5513;50.580;8.818;2022-12-20T03:42:46;40.40;;;24.63;;
10920;SDS011;5513;50.580;8.818;2022-12-20T03:45:15;44.83;;;26.20;;
10920;SDS011;5513;50.580;8.818;2022-12-20T03:47:44;47.57;;;27.97;;
10920;SDS011;5513;50.580;8.818;2022-12-20T03:50:12;44.83;;;26.10;;
10920;SDS011;5513;50.580;8.818;2022-12-20T03:52:43;43.30;;;24.80;;
10920;SDS011;5513;50.580;8.818;2022-12-20T03:55:12;46.97;;;26.50;;
10920;SDS011;5513;50.580;8.818;2022-12-20T03:57:41;42.10;;;24.90;;
10920;SDS011;5513;50.580;8.818;2022-12-20T04:00:10;45.60;;;25.27;;
10920;SDS011;5513;50.580;8.818;2022-12-20T04:02:39;45.63;;;25.77;;
10920;SDS011;5513;50.580;8.818;2022-12-20T04:05:08;43.40;;;26.00;;
10920;SDS011;5513;50.580;8.818;2022-12-20T04:07:37;46.20;;;26.80;;
10920;SDS011;5513;50.580;8.818;2022-12-20T04:10:08;43.87;;;25.70;;
10920;SDS011;5513;50.580;8.818;2022-12-20T04:12:37;47.27;;;25.20;;
10920;SDS011;5513;50.580;8.818;2022-12-20T04:15:06;44.77;;;26.07;;
10920;SDS011;5513;50.580;8.818;2022-12-20T04:17:35;44.30;;;25.40;;
10920;SDS011;5513;50.580;8.818;2022-12-20T04:20:04;43.10;;;25.70;;
10920;SDS011;5513;50.580;8.818;2022-12-20T04:22:46;41.00;;;24.57;;
10920;SDS011;5513;50.580;8.818;2022-12-20T04:25:18;45.00;;;25.53;;
10920;SDS011;5513;50.580;8.818;2022-12-20T04:27:47;38.83;;;24.73;;
10920;SDS011;5513;50.580;8.818;2022-12-20T04:30:16;43.30;;;24.83;;
10920;SDS011;5513;50.580;8.818;2022-12-20T04:32:45;41.93;;;24.87;;
10920;SDS011;5513;50.580;8.818;2022-12-20T04:35:13;42.20;;;25.73;;
10920;SDS011;5513;50.580;8.818;2022-12-20T04:37:44;47.40;;;26.23;;
10920;SDS011;5513;50.580;8.818;2022-12-20T04:40:14;42.87;;;25.40;;
10920;SDS011;5513;50.580;8.818;2022-12-20T04:42:44;40.77;;;25.00;;
10920;SDS011;5513;50.580;8.818;2022-12-20T04:45:13;40.70;;;25.03;;
10920;SDS011;5513;50.580;8.818;2022-12-20T04:47:42;47.73;;;25.87;;
10920;SDS011;5513;50.580;8.818;2022-12-20T04:50:11;41.10;;;24.87;;
10920;SDS011;5513;50.580;8.818;2022-12-20T04:52:39;39.33;;;25.60;;
10920;SDS011;5513;50.580;8.818;2022-12-20T04:55:25;40.53;;;24.53;;
10920;SDS011;5513;50.580;8.818;2022-12-20T04:57:56;42.07;;;24.93;;
10920;SDS011;5513;50.580;8.818;2022-12-20T05:00:32;40.93;;;25.80;;
10920;SDS011;5513;50.580;8.818;2022-12-20T05:03:04;39.90;;;23.33;;
10920;SDS011;5513;50.580;8.818;2022-12-20T05:05:32;39.00;;;24.03;;
10920;SDS011;5513;50.580;8.818;2022-12-20T05:08:01;38.93;;;24.57;;
10920;SDS011;5513;50.580;8.818;2022-12-20T05:10:31;37.00;;;23.97;;
10920;SDS011;5513;50.580;8.818;2022-12-20T05:13:01;38.40;;;23.77;;
10920;SDS011;5513;50.580;8.818;2022-12-20T05:15:35;38.27;;;23.90;;
10920;SDS011;5513;50.580;8.818;2022-12-20T05:18:07;37.37;;;22.67;;
10920;SDS011;5513;50.580;8.818;2022-12-20T05:20:36;37.33;;;23.27;;
10920;SDS011;5513;50.580;8.818;2022-12-20T05:23:05;38.87;;;22.90;;
10920;SDS011;5513;50.580;8.818;2022-12-20T05:25:52;35.37;;;23.07;;
10920;SDS011;5513;50.580;8.818;2022-12-20T05:28:40;38.63;;;22.17;;
10920;SDS011;5513;50.580;8.818;2022-12-20T05:31:08;37.73;;;21.67;;
10920;SDS011;5513;50.580;8.818;2022-12-20T05:33:38;35.47;;;22.10;;
10920;SDS011;5513;50.580;8.818;2022-12-20T05:36:06;37.73;;;21.67;;
10920;SDS011;5513;50.580;8.818;2022-12-20T05:38:35;36.93;;;22.87;;
10920;SDS011;5513;50.580;8.818;2022-12-20T05:41:04;36.50;;;22.10;;
10920;SDS011;5513;50.580;8.818;2022-12-20T05:43:34;36.87;;;22.63;;
10920;SDS011;5513;50.580;8.818;2022-12-20T05:46:06;40.33;;;23.47;;
10920;SDS011;5513;50.580;8.818;2022-12-20T05:48:36;32.20;;;20.63;;
10920;SDS011;5513;50.580;8.818;2022-12-20T05:51:05;37.27;;;22.73;;
10920;SDS011;5513;50.580;8.818;2022-12-20T05:53:37;38.03;;;22.77;;
10920;SDS011;5513;50.580;8.818;2022-12-20T05:56:06;32.73;;;21.60;;
10920;SDS011;5513;50.580;8.818;2022-12-20T05:58:37;34.10;;;21.80;;
10920;SDS011;5513;50.580;8.818;2022-12-20T06:01:08;36.83;;;23.17;;
10920;SDS011;5513;50.580;8.818;2022-12-20T06:03:36;39.00;;;23.27;;
10920;SDS011;5513;50.580;8.818;2022-12-20T06:06:06;35.67;;;22.03;;
10920;SDS011;5513;50.580;8.818;2022-12-20T06:08:40;37.17;;;21.43;;
10920;SDS011;5513;50.580;8.818;2022-12-20T06:11:08;34.40;;;22.07;;
10920;SDS011;5513;50.580;8.818;2022-12-20T06:13:37;37.20;;;23.23;;
10920;SDS011;5513;50.580;8.818;2022-12-20T06:16:07;34.47;;;21.40;;
10920;SDS011;5513;50.580;8.818;2022-12-20T06:18:36;39.30;;;22.77;;
10920;SDS011;5513;50.580;8.818;2022-12-20T06:21:07;35.80;;;22.13;;
10920;SDS011;5513;50.580;8.818;2022-12-20T06:23:35;40.90;;;22.73;;
10920;SDS011;5513;50.580;8.818;2022-12-20T06:26:04;33.73;;;21.57;;
10920;SDS011;5513;50.580;8.818;2022-12-20T06:28:35;34.77;;;21.50;;
10920;SDS011;5513;50.580;8.818;2022-12-20T06:31:09;36.70;;;21.70;;
10920;SDS011;5513;50.580;8.818;2022-12-20T06:33:38;34.90;;;21.43;;
10920;SDS011;5513;50.580;8.818;2022-12-20T06:36:08;39.63;;;22.33;;
10920;SDS011;5513;50.580;8.818;2022-12-20T06:38:38;35.80;;;21.03;;
10920;SDS011;5513;50.580;8.818;2022-12-20T06:41:07;36.60;;;22.00;;
10920;SDS011;5513;50.580;8.818;2022-12-20T06:43:35;37.47;;;21.93;;
10920;SDS011;5513;50.580;8.818;2022-12-20T06:46:06;32.33;;;19.77;;
10920;SDS011;5513;50.580;8.818;2022-12-20T06:48:36;36.63;;;23.17;;
10920;SDS011;5513;50.580;8.818;2022-12-20T06:51:06;34.73;;;21.83;;
10920;SDS011;5513;50.580;8.818;2022-12-20T06:53:36;36.17;;;21.80;;
10920;SDS011;5513;50.580;8.818;2022-12-20T06:56:04;35.23;;;21.83;;
10920;SDS011;5513;50.580;8.818;2022-12-20T06:58:33;34.30;;;21.47;;
10920;SDS011;5513;50.580;8.818;2022-12-20T07:01:03;38.50;;;22.73;;
10920;SDS011;5513;50.580;8.818;2022-12-20T07:03:32;34.77;;;21.27;;
10920;SDS011;5513;50.580;8.818;2022-12-20T07:06:04;35.83;;;22.57;;
10920;SDS011;5513;50.580;8.818;2022-12-20T07:08:35;34.13;;;21.00;;
10920;SDS011;5513;50.580;8.818;2022-12-20T07:11:03;38.20;;;22.10;;
10920;SDS011;5513;50.580;8.818;2022-12-20T07:13:32;32.90;;;21.50;;
10920;SDS011;5513;50.580;8.818;2022-12-20T07:16:03;38.43;;;22.07;;
10920;SDS011;5513;50.580;8.818;2022-12-20T07:18:33;35.43;;;21.57;;
10920;SDS011;5513;50.580;8.818;2022-12-20T07:21:04;39.00;;;22.50;;
10920;SDS011;5513;50.580;8.818;2022-12-20T07:23:33;36.73;;;22.27;;
10920;SDS011;5513;50.580;8.818;2022-12-20T07:26:02;36.23;;;21.27;;
10920;SDS011;5513;50.580;8.818;2022-12-20T07:28:31;36.83;;;21.07;;
10920;SDS011;5513;50.580;8.818;2022-12-20T07:31:00;36.50;;;21.67;;
10920;SDS011;5513;50.580;8.818;2022-12-20T07:33:30;38.40;;;22.90;;
10920;SDS011;5513;50.580;8.818;2022-12-20T07:36:00;39.83;;;22.77;;
10920;SDS011;5513;50.580;8.818;2022-12-20T07:38:30;37.20;;;21.20;;
10920;SDS011;5513;50.580;8.818;2022-12-20T07:40:59;31.40;;;20.07;;
10920;SDS011;5513;50.580;8.818;2022-12-20T07:43:27;36.37;;;21.53;;
10920;SDS011;5513;50.580;8.818;2022-12-20T07:45:55;35.27;;;20.83;;
10920;SDS011;5513;50.580;8.818;2022-12-20T07:48:26;34.47;;;21.33;;
10920;SDS011;5513;50.580;8.818;2022-12-20T07:50:54;33.83;;;21.50;;
10920;SDS011;5513;50.580;8.818;2022-12-20T07:53:26;34.13;;;22.23;;
10920;SDS011;5513;50.580;8.818;2022-12-20T07:55:59;31.13;;;20.90;;
10920;SDS011;5513;50.580;8.818;2022-12-20T07:58:29;31.53;;;19.93;;
10920;SDS011;5513;50.580;8.818;2022-12-20T08:01:02;30.77;;;19.77;;
10920;SDS011;5513;50.580;8.818;2022-12-20T08:03:31;35.97;;;19.73;;
10920;SDS011;5513;50.580;8.818;2022-12-20T08:06:05;36.77;;;20.43;;
10920;SDS011;5513;50.580;8.818;2022-12-20T08:08:36;31.13;;;20.00;;
10920;SDS011;5513;50.580;8.818;2022-12-20T08:11:12;31.63;;;19.30;;
10920;SDS011;5513;50.580;8.818;2022-12-20T08:13:43;28.13;;;18.73;;
10920;SDS011;5513;50.580;8.818;2022-12-20T08:16:16;32.97;;;19.07;;
10920;SDS011;5513;50.580;8.818;2022-12-20T08:18:45;28.07;;;17.97;;
10920;SDS011;5513;50.580;8.818;2022-12-20T08:21:13;33.03;;;18.73;;
10920;SDS011;5513;50.580;8.818;2022-12-20T08:23:41;29.90;;;17.53;;
10920;SDS011;5513;50.580;8.818;2022-12-20T08:26:12;30.10;;;17.83;;
10920;SDS011;5513;50.580;8.818;2022-12-20T08:28:41;27.67;;;17.67;;
10920;SDS011;5513;50.580;8.818;2022-12-20T08:31:10;29.07;;;17.97;;
10920;SDS011;5513;50.580;8.818;2022-12-20T08:33:39;29.80;;;18.33;;
10920;SDS011;5513;50.580;8.818;2022-12-20T08:36:09;30.40;;;19.23;;
10920;SDS011;5513;50.580;8.818;2022-12-20T08:38:40;30.57;;;19.53;;
10920;SDS011;5513;50.580;8.818;2022-12-20T08:41:15;28.43;;;17.63;;
10920;SDS011;5513;50.580;8.818;2022-12-20T08:43:44;28.50;;;18.33;;
10920;SDS011;5513;50.580;8.818;2022-12-20T08:46:13;30.10;;;19.07;;
10920;SDS011;5513;50.580;8.818;2022-12-20T08:48:42;32.70;;;19.33;;
10920;SDS011;5513;50.580;8.818;2022-12-20T08:51:11;27.23;;;18.87;;
10920;SDS011;5513;50.580;8.818;2022-12-20T08:53:40;30.63;;;19.07;;
10920;SDS011;5513;50.580;8.818;2022-12-20T08:56:10;34.20;;;19.50;;
10920;SDS011;5513;50.580;8.818;2022-12-20T08:58:41;32.37;;;19.93;;
10920;SDS011;5513;50.580;8.818;2022-12-20T09:01:11;30.30;;;18.83;;
10920;SDS011;5513;50.580;8.818;2022-12-20T09:03:41;32.00;;;19.87;;
10920;SDS011;5513;50.580;8.818;2022-12-20T09:06:11;31.97;;;19.67;;
10920;SDS011;5513;50.580;8.818;2022-12-20T09:08:41;33.17;;;19.73;;
10920;SDS011;5513;50.580;8.818;2022-12-20T09:11:10;29.40;;;18.80;;
10920;SDS011;5513;50.580;8.818;2022-12-20T09:13:43;31.83;;;19.33;;
10920;SDS011;5513;50.580;8.818;2022-12-20T09:16:16;30.57;;;19.53;;
10920;SDS011;5513;50.580;8.818;2022-12-20T09:18:47;30.27;;;18.90;;
10920;SDS011;5513;50.580;8.818;2022-12-20T09:21:15;28.50;;;18.60;;
10920;SDS011;5513;50.580;8.818;2022-12-20T09:23:45;29.60;;;18.33;;
10920;SDS011;5513;50.580;8.818;2022-12-20T09:26:17;26.30;;;17.30;;
10920;SDS011;5513;50.580;8.818;2022-12-20T09:28:48;26.33;;;18.17;;
10920;SDS011;5513;50.580;8.818;2022-12-20T09:31:18;26.87;;;18.30;;
10920;SDS011;5513;50.580;8.818;2022-12-20T09:33:48;28.23;;;17.63;;
10920;SDS011;5513;50.580;8.818;2022-12-20T09:36:20;27.53;;;17.80;;
10920;SDS011;5513;50.580;8.818;2022-12-20T09:38:52;29.70;;;18.30;;
10920;SDS011;5513;50.580;8.818;2022-12-20T09:41:27;28.63;;;17.90;;
10920;SDS011;5513;50.580;8.818;2022-12-20T09:44:04;26.50;;;17.90;;
10920;SDS011;5513;50.580;8.818;2022-12-20T09:46:41;24.90;;;17.63;;
10920;SDS011;5513;50.580;8.818;2022-12-20T09:49:13;25.50;;;16.97;;
10920;SDS011;5513;50.580;8.818;2022-12-20T09:51:48;23.67;;;16.13;;
10920;SDS011;5513;50.580;8.818;2022-12-20T09:54:41;27.27;;;16.60;;
10920;SDS011;5513;50.580;8.818;2022-12-20T09:57:19;25.00;;;16.27;;
10920;SDS011;5513;50.580;8.818;2022-12-20T09:59:56;24.70;;;15.97;;
10920;SDS011;5513;50.580;8.818;2022-12-20T10:02:25;24.70;;;16.27;;
10920;SDS011;5513;50.580;8.818;2022-12-20T10:05:19;22.80;;;15.07;;
10920;SDS011;5513;50.580;8.818;2022-12-20T10:07:54;22.33;;;15.20;;
10920;SDS011;5513;50.580;8.818;2022-12-20T10:10:34;21.87;;;14.80;;
10920;SDS011;5513;50.580;8.818;2022-12-20T10:13:18;24.07;;;15.60;;
10920;SDS011;5513;50.580;8.818;2022-12-20T10:15:59;21.33;;;14.73;;
10920;SDS011;5513;50.580;8.818;2022-12-20T10:18:44;22.93;;;14.93;;
10920;SDS011;5513;50.580;8.818;2022-12-20T10:21:25;22.90;;;15.13;;
10920;SDS011;5513;50.580;8.818;2022-12-20T10:24:04;24.17;;;14.87;;
10920;SDS011;5513;50.580;8.818;2022-12-20T10:26:41;21.13;;;14.00;;
10920;SDS011;5513;50.580;8.818;2022-12-20T10:29:10;21.40;;;15.17;;
10920;SDS011;5513;50.580;8.818;2022-12-20T10:31:41;22.17;;;14.67;;
10920;SDS011;5513;50.580;8.818;2022-12-20T10:34:11;23.90;;;14.00;;
10920;SDS011;5513;50.580;8.818;2022-12-20T10:36:39;22.90;;;14.07;;
10920;SDS011;5513;50.580;8.818;2022-12-20T10:39:08;22.63;;;15.13;;
10920;SDS011;5513;50.580;8.818;2022-12-20T10:41:45;21.70;;;14.03;;
10920;SDS011;5513;50.580;8.818;2022-12-20T10:44:19;24.57;;;15.23;;
10920;SDS011;5513;50.580;8.818;2022-12-20T10:46:55;24.23;;;15.60;;
10920;SDS011;5513;50.580;8.818;2022-12-20T10:49:27;22.37;;;15.43;;
10920;SDS011;5513;50.580;8.818;2022-12-20T10:52:02;24.80;;;15.53;;
10920;SDS011;5513;50.580;8.818;2022-12-20T10:54:38;21.73;;;14.37;;
10920;SDS011;5513;50.580;8.818;2022-12-20T10:57:12;24.13;;;15.03;;
10920;SDS011;5513;50.580;8.818;2022-12-20T10:59:47;22.17;;;15.30;;
10920;SDS011;5513;50.580;8.818;2022-12-20T11:02:28;26.00;;;15.23;;
10920;SDS011;5513;50.580;8.818;2022-12-20T11:07:59;22.07;;;15.33;;
10920;SDS011;5513;50.580;8.818;2022-12-20T11:11:12;23.43;;;15.50;;
10920;SDS011;5513;50.580;8.818;2022-12-20T11:13:43;20.80;;;15.00;;
10920;SDS011;5513;50.580;8.818;2022-12-20T11:16:23;23.27;;;15.60;;
10920;SDS011;5513;50.580;8.818;2022-12-20T11:19:04;23.50;;;15.63;;
10920;SDS011;5513;50.580;8.818;2022-12-20T11:21:47;22.63;;;14.87;;
10920;SDS011;5513;50.580;8.818;2022-12-20T11:24:25;23.10;;;15.50;;
10920;SDS011;5513;50.580;8.818;2022-12-20T11:27:06;23.67;;;15.73;;
10920;SDS011;5513;50.580;8.818;2022-12-20T11:29:54;22.93;;;15.70;;
10920;SDS011;5513;50.580;8.818;2022-12-20T11:32:36;26.63;;;17.60;;
10920;SDS011;5513;50.580;8.818;2022-12-20T11:35:17;20.33;;;14.53;;
10920;SDS011;5513;50.580;8.818;2022-12-20T11:37:55;24.77;;;16.23;;
10920;SDS011;5513;50.580;8.818;2022-12-20T11:40:36;25.87;;;16.57;;
10920;SDS011;5513;50.580;8.818;2022-12-20T11:43:13;23.23;;;16.53;;
10920;SDS011;5513;50.580;8.818;2022-12-20T11:45:54;25.77;;;17.37;;
10920;SDS011;5513;50.580;8.818;2022-12-20T11:48:42;27.07;;;18.27;;
10920;SDS011;5513;50.580;8.818;2022-12-20T11:51:23;26.37;;;17.17;;
10920;SDS011;5513;50.580;8.818;2022-12-20T11:54:02;26.90;;;17.80;;
10920;SDS011;5513;50.580;8.818;2022-12-20T11:56:38;24.87;;;16.33;;
10920;SDS011;5513;50.580;8.818;2022-12-20T11:59:14;26.00;;;17.43;;
10920;SDS011;5513;50.580;8.818;2022-12-20T12:01:50;25.83;;;17.97;;
10920;SDS011;5513;50.580;8.818;2022-12-20T12:04:25;25.53;;;16.63;;
10920;SDS011;5513;50.580;8.818;2022-12-20T12:07:01;26.27;;;17.80;;
10920;SDS011;5513;50.580;8.818;2022-12-20T12:09:31;29.30;;;18.27;;
10920;SDS011;5513;50.580;8.818;2022-12-20T12:12:05;27.10;;;17.30;;
10920;SDS011;5513;50.580;8.818;2022-12-20T12:14:43;29.23;;;18.73;;
10920;SDS011;5513;50.580;8.818;2022-12-20T12:17:20;26.03;;;17.73;;
10920;SDS011;5513;50.580;8.818;2022-12-20T12:19:55;27.20;;;17.57;;
10920;SDS011;5513;50.580;8.818;2022-12-20T12:22:36;25.47;;;17.50;;
10920;SDS011;5513;50.580;8.818;2022-12-20T12:25:08;30.13;;;19.63;;
10920;SDS011;5513;50.580;8.818;2022-12-20T12:27:45;28.23;;;17.93;;
10920;SDS011;5513;50.580;8.818;2022-12-20T12:30:14;27.33;;;16.90;;
10920;SDS011;5513;50.580;8.818;2022-12-20T12:32:44;26.50;;;17.53;;
10920;SDS011;5513;50.580;8.818;2022-12-20T12:35:37;24.83;;;16.67;;
10920;SDS011;5513;50.580;8.818;2022-12-20T12:41:41;24.97;;;17.83;;
10920;SDS011;5513;50.580;8.818;2022-12-20T12:44:29;28.63;;;18.43;;
10920;SDS011;5513;50.580;8.818;2022-12-20T12:47:09;26.57;;;17.43;;
10920;SDS011;5513;50.580;8.818;2022-12-20T12:49:42;26.07;;;17.80;;
10920;SDS011;5513;50.580;8.818;2022-12-20T12:52:25;27.27;;;17.40;;
10920;SDS011;5513;50.580;8.818;2022-12-20T12:55:03;22.43;;;16.10;;
10920;SDS011;5513;50.580;8.818;2022-12-20T12:58:12;25.23;;;17.03;;
10920;SDS011;5513;50.580;8.818;2022-12-20T13:00:49;29.10;;;17.07;;
10920;SDS011;5513;50.580;8.818;2022-12-20T13:03:34;25.77;;;16.63;;
10920;SDS011;5513;50.580;8.818;2022-12-20T13:09:39;26.83;;;17.27;;
10920;SDS011;5513;50.580;8.818;2022-12-20T13:18:33;25.97;;;17.17;;
10920;SDS011;5513;50.580;8.818;2022-12-20T13:27:16;25.43;;;16.43;;
10920;SDS011;5513;50.580;8.818;2022-12-20T13:36:01;24.47;;;16.47;;
10920;SDS011;5513;50.580;8.818;2022-12-20T13:38:36;24.73;;;16.10;;
10920;SDS011;5513;50.580;8.818;2022-12-20T13:41:18;28.30;;;16.53;;
10920;SDS011;5513;50.580;8.818;2022-12-20T13:44:09;27.43;;;16.83;;
10920;SDS011;5513;50.580;8.818;2022-12-20T13:46:52;26.40;;;17.40;;
10920;SDS011;5513;50.580;8.818;2022-12-20T13:49:27;25.40;;;16.50;;
10920;SDS011;5513;50.580;8.818;2022-12-20T13:52:19;30.07;;;19.80;;
10920;SDS011;5513;50.580;8.818;2022-12-20T13:54:51;27.07;;;17.33;;
10920;SDS011;5513;50.580;8.818;2022-12-20T13:57:27;27.17;;;17.70;;
10920;SDS011;5513;50.580;8.818;2022-12-20T13:59:58;26.83;;;16.93;;
10920;SDS011;5513;50.580;8.818;2022-12-20T14:02:35;26.00;;;16.83;;
10920;SDS011;5513;50.580;8.818;2022-12-20T14:05:13;27.57;;;18.80;;
10920;SDS011;5513;50.580;8.818;2022-12-20T14:07:47;26.70;;;16.97;;
10920;SDS011;5513;50.580;8.818;2022-12-20T14:10:22;24.73;;;15.47;;
10920;SDS011;5513;50.580;8.818;2022-12-20T14:12:53;26.50;;;17.40;;
10920;SDS011;5513;50.580;8.818;2022-12-20T14:15:22;25.77;;;16.30;;
10920;SDS011;5513;50.580;8.818;2022-12-20T14:17:53;26.23;;;17.27;;
10920;SDS011;5513;50.580;8.818;2022-12-20T14:20:22;25.37;;;16.73;;
10920;SDS011;5513;50.580;8.818;2022-12-20T14:22:58;37.87;;;23.20;;
10920;SDS011;5513;50.580;8.818;2022-12-20T14:25:33;38.77;;;24.17;;
10920;SDS011;5513;50.580;8.818;2022-12-20T14:28:05;43.60;;;24.90;;
10920;SDS011;5513;50.580;8.818;2022-12-20T14:30:57;27.63;;;18.70;;
10920;SDS011;5513;50.580;8.818;2022-12-20T14:33:33;29.53;;;17.27;;
10920;SDS011;5513;50.580;8.818;2022-12-20T14:36:08;21.37;;;15.30;;
10920;SDS011;5513;50.580;8.818;2022-12-20T14:38:39;24.90;;;14.73;;
10920;SDS011;5513;50.580;8.818;2022-12-20T14:44:03;20.73;;;15.50;;
10920;SDS011;5513;50.580;8.818;2022-12-20T14:46:45;20.63;;;14.63;;
10920;SDS011;5513;50.580;8.818;2022-12-20T14:49:17;23.40;;;14.87;;
10920;SDS011;5513;50.580;8.818;2022-12-20T14:51:48;20.43;;;14.33;;
10920;SDS011;5513;50.580;8.818;2022-12-20T14:54:20;23.40;;;14.53;;
10920;SDS011;5513;50.580;8.818;2022-12-20T14:57:19;20.33;;;13.83;;
10920;SDS011;5513;50.580;8.818;2022-12-20T14:59:58;21.37;;;14.07;;
10920;SDS011;5513;50.580;8.818;2022-12-20T15:02:32;21.57;;;13.83;;
10920;SDS011;5513;50.580;8.818;2022-12-20T15:08:15;22.30;;;14.30;;
10920;SDS011;5513;50.580;8.818;2022-12-20T15:11:00;21.87;;;15.03;;
10920;SDS011;5513;50.580;8.818;2022-12-20T15:13:39;20.47;;;13.40;;
10920;SDS011;5513;50.580;8.818;2022-12-20T15:16:12;20.93;;;14.63;;
10920;SDS011;5513;50.580;8.818;2022-12-20T15:18:44;22.90;;;13.43;;
10920;SDS011;5513;50.580;8.818;2022-12-20T15:21:13;20.57;;;13.27;;
10920;SDS011;5513;50.580;8.818;2022-12-20T15:23:46;18.60;;;12.77;;
10920;SDS011;5513;50.580;8.818;2022-12-20T15:26:21;23.10;;;14.13;;
10920;SDS011;5513;50.580;8.818;2022-12-20T15:28:51;22.00;;;14.53;;
10920;SDS011;5513;50.580;8.818;2022-12-20T15:31:20;20.07;;;13.30;;
10920;SDS011;5513;50.580;8.818;2022-12-20T15:33:58;16.60;;;12.90;;
10920;SDS011;5513;50.580;8.818;2022-12-20T15:36:28;18.73;;;13.97;;
10920;SDS011;5513;50.580;8.818;2022-12-20T15:38:56;23.50;;;14.63;;
10920;SDS011;5513;50.580;8.818;2022-12-20T15:41:40;20.30;;;15.00;;
10920;SDS011;5513;50.580;8.818;2022-12-20T15:44:12;21.20;;;13.47;;
10920;SDS011;5513;50.580;8.818;2022-12-20T15:46:43;20.43;;;13.33;;